createdAt,value
2022-12-31T00:01:00.582Z,1.10
2022-12-31T00:03:28.409Z,1.00
2022-12-31T00:05:57.625Z,0.80
2022-12-31T00:08:25.287Z,0.80
2022-12-31T00:10:53.000Z,1.10
2022-12-31T00:13:22.498Z,1.10
2022-12-31T00:15:50.075Z,0.80
2022-12-31T00:18:17.756Z,0.70
2022-12-31T00:20:45.420Z,1.03
2022-12-31T00:23:14.602Z,1.03
2022-12-31T00:25:42.208Z,0.60
2022-12-31T00:28:09.876Z,0.80
2022-12-31T00:30:37.646Z,1.10
2022-12-31T00:33:05.391Z,0.77
2022-12-31T00:35:34.697Z,1.43
2022-12-31T00:38:02.738Z,1.10
2022-12-31T00:40:31.951Z,0.57
2022-12-31T00:43:00.197Z,0.70
2022-12-31T00:45:28.108Z,0.30
2022-12-31T00:47:55.827Z,0.83
2022-12-31T00:50:23.756Z,1.57
2022-12-31T00:52:51.495Z,1.33
2022-12-31T00:55:19.667Z,0.60
2022-12-31T00:57:49.747Z,0.57
2022-12-31T01:00:18.086Z,0.83
2022-12-31T01:02:45.838Z,1.33
2022-12-31T01:05:13.697Z,0.60
2022-12-31T01:07:41.368Z,5.70
2022-12-31T01:10:09.887Z,0.60
2022-12-31T01:12:37.701Z,1.07
2022-12-31T01:15:08.026Z,0.67
2022-12-31T01:17:35.650Z,0.77
2022-12-31T01:20:03.303Z,0.77
2022-12-31T01:22:31.204Z,0.70
2022-12-31T01:24:58.835Z,1.00
2022-12-31T01:27:26.503Z,0.87
2022-12-31T01:29:54.097Z,0.90
2022-12-31T01:32:23.003Z,2.07
2022-12-31T01:34:50.589Z,1.43
2022-12-31T01:37:18.331Z,2.03
2022-12-31T01:39:45.936Z,0.87
2022-12-31T01:42:14.047Z,0.77
2022-12-31T01:44:53.268Z,1.30
2022-12-31T01:47:32.198Z,1.50
2022-12-31T01:50:03.552Z,0.80
2022-12-31T01:52:33.299Z,2.10
2022-12-31T01:55:04.709Z,0.93
2022-12-31T01:57:32.798Z,1.03
2022-12-31T02:00:02.149Z,1.00
2022-12-31T02:02:31.197Z,1.50
2022-12-31T02:04:59.691Z,1.33
2022-12-31T02:07:27.289Z,1.20
2022-12-31T02:09:54.963Z,1.40
2022-12-31T02:12:22.883Z,1.67
2022-12-31T02:14:52.967Z,1.70
2022-12-31T02:17:29.905Z,1.03
2022-12-31T02:20:13.366Z,1.57
2022-12-31T02:22:53.265Z,1.40
2022-12-31T02:25:38.639Z,1.07
2022-12-31T02:28:18.411Z,1.13
2022-12-31T02:30:50.025Z,2.20
2022-12-31T02:33:23.060Z,1.43
2022-12-31T02:35:53.025Z,1.30
2022-12-31T02:38:24.829Z,1.57
2022-12-31T02:40:55.060Z,1.70
2022-12-31T02:43:22.712Z,1.30
2022-12-31T02:45:59.069Z,2.70
2022-12-31T02:48:41.923Z,3.47
2022-12-31T02:51:19.152Z,1.40
2022-12-31T02:54:16.367Z,2.90
2022-12-31T02:56:49.613Z,2.67
2022-12-31T02:59:41.926Z,1.60
2022-12-31T03:02:19.330Z,1.93
2022-12-31T03:04:49.838Z,3.13
2022-12-31T03:07:20.446Z,2.23
2022-12-31T03:09:48.144Z,1.60
2022-12-31T03:12:33.761Z,1.87
2022-12-31T03:15:01.785Z,5.00
2022-12-31T03:17:30.789Z,2.10
2022-12-31T03:20:15.930Z,1.57
2022-12-31T03:22:44.524Z,3.67
2022-12-31T03:25:31.870Z,2.83
2022-12-31T03:27:59.909Z,3.77
2022-12-31T03:30:28.091Z,1.60
2022-12-31T03:32:57.448Z,1.73
2022-12-31T03:35:26.251Z,3.90
2022-12-31T03:37:53.984Z,1.43
2022-12-31T03:40:23.509Z,1.73
2022-12-31T03:42:51.141Z,1.90
2022-12-31T03:45:19.089Z,1.73
2022-12-31T03:47:46.998Z,4.87
2022-12-31T03:50:17.374Z,1.90
2022-12-31T03:52:45.745Z,1.57
2022-12-31T03:55:13.877Z,1.90
2022-12-31T03:57:41.949Z,2.43
2022-12-31T04:00:11.948Z,2.00
2022-12-31T04:02:39.684Z,4.17
2022-12-31T04:05:08.270Z,2.57
2022-12-31T04:07:37.657Z,3.83
2022-12-31T04:10:06.248Z,2.20
2022-12-31T04:12:33.898Z,6.93
2022-12-31T04:15:01.500Z,2.77
2022-12-31T04:17:29.184Z,4.90
2022-12-31T04:19:56.890Z,2.83
2022-12-31T04:22:24.533Z,2.83
2022-12-31T04:24:53.534Z,2.57
2022-12-31T04:27:21.218Z,3.47
2022-12-31T04:29:48.885Z,1.53
2022-12-31T04:32:16.466Z,2.63
2022-12-31T04:34:44.200Z,2.60
2022-12-31T04:37:11.844Z,1.67
2022-12-31T04:39:39.479Z,2.80
2022-12-31T04:42:08.438Z,1.97
2022-12-31T04:44:36.103Z,4.37
2022-12-31T04:47:03.728Z,1.57
2022-12-31T04:49:31.349Z,1.63
2022-12-31T04:51:58.999Z,3.57
2022-12-31T04:54:26.593Z,2.07
2022-12-31T04:56:54.225Z,1.20
2022-12-31T04:59:23.252Z,2.10
2022-12-31T05:01:51.048Z,2.20
2022-12-31T05:04:18.712Z,1.73
2022-12-31T05:06:46.326Z,2.23
2022-12-31T05:09:13.953Z,1.80
2022-12-31T05:11:41.632Z,2.97
2022-12-31T05:14:09.188Z,0.83
2022-12-31T05:16:38.178Z,1.27
2022-12-31T05:19:06.448Z,2.60
2022-12-31T05:21:34.135Z,1.30
2022-12-31T05:24:01.820Z,1.97
2022-12-31T05:26:29.561Z,2.50
2022-12-31T05:28:57.415Z,2.60
2022-12-31T05:31:25.013Z,1.57
2022-12-31T05:33:54.101Z,1.20
2022-12-31T05:36:21.727Z,0.97
2022-12-31T05:38:49.281Z,1.17
2022-12-31T05:41:16.895Z,2.10
2022-12-31T05:43:44.545Z,1.23
2022-12-31T05:46:12.231Z,1.60
2022-12-31T05:48:39.899Z,1.90
2022-12-31T05:51:08.857Z,1.13
2022-12-31T05:53:36.445Z,1.10
2022-12-31T05:56:04.029Z,1.27
2022-12-31T05:58:31.599Z,1.03
2022-12-31T06:00:59.270Z,2.70
2022-12-31T06:03:27.032Z,1.47
2022-12-31T06:05:54.672Z,1.73
2022-12-31T06:08:23.935Z,1.80
2022-12-31T06:10:51.667Z,1.10
2022-12-31T06:13:19.303Z,0.87
2022-12-31T06:15:46.954Z,2.07
2022-12-31T06:18:14.658Z,1.47
2022-12-31T06:20:42.344Z,4.60
2022-12-31T06:23:10.001Z,1.67
2022-12-31T06:25:39.058Z,2.00
2022-12-31T06:28:07.064Z,1.37
2022-12-31T06:30:34.830Z,1.73
2022-12-31T06:33:02.490Z,4.13
2022-12-31T06:35:30.124Z,1.43
2022-12-31T06:37:57.801Z,1.60
2022-12-31T06:40:25.569Z,1.87
2022-12-31T06:42:59.714Z,2.20
2022-12-31T06:45:28.197Z,1.20
2022-12-31T06:47:55.857Z,2.47
2022-12-31T06:50:23.613Z,1.27
2022-12-31T06:52:51.271Z,1.47
2022-12-31T06:55:19.439Z,0.93
2022-12-31T06:57:47.541Z,3.50
2022-12-31T07:00:18.381Z,1.73
2022-12-31T07:03:11.467Z,2.57
2022-12-31T07:05:43.540Z,1.67
2022-12-31T07:08:21.017Z,1.40
2022-12-31T07:10:52.826Z,1.87
2022-12-31T07:13:41.924Z,2.53
2022-12-31T07:16:24.500Z,1.80
2022-12-31T07:18:57.183Z,1.13
2022-12-31T07:21:31.237Z,2.80
2022-12-31T07:23:59.295Z,1.93
2022-12-31T07:26:40.553Z,1.70
2022-12-31T07:29:13.033Z,1.77
2022-12-31T07:31:52.145Z,2.20
2022-12-31T07:34:24.736Z,1.97
2022-12-31T07:37:00.534Z,1.70
2022-12-31T07:39:35.410Z,2.83
2022-12-31T07:42:06.451Z,2.20
2022-12-31T07:44:42.260Z,2.40
2022-12-31T07:47:20.618Z,1.60
2022-12-31T07:49:49.197Z,2.70
2022-12-31T07:52:18.494Z,2.83
2022-12-31T07:54:46.219Z,1.70
2022-12-31T07:57:15.091Z,3.20
2022-12-31T07:59:52.872Z,2.73
2022-12-31T08:02:28.033Z,2.30
2022-12-31T08:05:01.748Z,2.80
2022-12-31T08:07:35.373Z,2.30
2022-12-31T08:10:09.111Z,3.13
2022-12-31T08:12:40.553Z,5.57
2022-12-31T08:15:23.000Z,2.53
2022-12-31T08:17:55.131Z,2.27
2022-12-31T08:20:22.966Z,1.80
2022-12-31T08:23:07.131Z,1.57
2022-12-31T08:25:40.638Z,1.70
2022-12-31T08:28:13.952Z,3.17
2022-12-31T08:30:45.792Z,1.50
2022-12-31T08:33:18.638Z,2.57
2022-12-31T08:35:55.180Z,3.83
2022-12-31T08:38:28.485Z,2.73
2022-12-31T08:41:00.687Z,2.33
2022-12-31T08:43:37.134Z,3.77
2022-12-31T08:46:05.810Z,2.27
2022-12-31T08:48:40.683Z,3.53
2022-12-31T08:51:14.205Z,3.37
2022-12-31T08:53:42.413Z,2.03
2022-12-31T08:56:14.650Z,3.47
2022-12-31T08:58:48.458Z,3.90
2022-12-31T09:01:19.116Z,1.53
2022-12-31T09:03:59.148Z,2.57
2022-12-31T09:06:30.026Z,1.87
2022-12-31T09:09:04.982Z,4.07
2022-12-31T09:11:39.590Z,2.10
2022-12-31T09:14:22.617Z,2.50
2022-12-31T09:16:57.367Z,1.67
2022-12-31T09:19:26.384Z,2.17
2022-12-31T09:21:54.610Z,1.90
2022-12-31T09:24:22.721Z,2.17
2022-12-31T09:27:00.306Z,6.57
2022-12-31T09:29:39.488Z,2.30
2022-12-31T09:32:10.640Z,2.50
2022-12-31T09:34:44.994Z,2.17
2022-12-31T09:37:17.298Z,2.67
2022-12-31T09:39:46.164Z,2.17
2022-12-31T09:42:32.161Z,2.37
2022-12-31T09:45:29.837Z,4.70
2022-12-31T09:48:24.446Z,5.87
2022-12-31T09:51:10.409Z,2.50
2022-12-31T09:53:48.306Z,4.40
2022-12-31T09:56:21.893Z,2.87
2022-12-31T09:58:57.845Z,1.80
2022-12-31T10:01:37.480Z,2.23
2022-12-31T10:04:23.574Z,3.30
2022-12-31T10:07:03.404Z,4.57
2022-12-31T10:09:40.328Z,1.93
2022-12-31T10:12:23.791Z,3.97
2022-12-31T10:15:10.021Z,2.03
2022-12-31T10:17:50.378Z,2.63
2022-12-31T10:20:49.404Z,2.17
2022-12-31T10:23:30.205Z,1.83
2022-12-31T10:26:10.360Z,4.33
2022-12-31T10:28:43.500Z,2.10
2022-12-31T10:31:15.670Z,4.67
2022-12-31T10:33:46.149Z,2.20
2022-12-31T10:36:20.730Z,2.77
2022-12-31T10:39:08.948Z,3.67
2022-12-31T10:42:00.330Z,4.73
2022-12-31T10:44:49.566Z,3.30
2022-12-31T10:47:46.965Z,2.40
2022-12-31T10:50:35.164Z,2.97
2022-12-31T10:53:18.753Z,2.60
2022-12-31T10:56:02.303Z,2.73
2022-12-31T10:59:02.611Z,2.30
2022-12-31T11:01:37.940Z,2.23
2022-12-31T11:04:26.736Z,3.87
2022-12-31T11:07:31.297Z,2.80
2022-12-31T11:10:21.381Z,3.20
2022-12-31T11:13:43.078Z,2.40
2022-12-31T11:16:21.325Z,1.67
2022-12-31T11:18:54.998Z,2.50
2022-12-31T11:21:34.205Z,4.07
2022-12-31T11:24:07.169Z,2.30
2022-12-31T11:26:45.056Z,4.93
2022-12-31T11:29:23.392Z,3.03
2022-12-31T11:32:16.868Z,3.50
2022-12-31T11:34:57.795Z,3.67
2022-12-31T11:37:34.446Z,3.87
2022-12-31T11:40:18.744Z,3.80
2022-12-31T11:42:53.360Z,3.60
2022-12-31T11:45:32.194Z,2.00
2022-12-31T11:51:03.911Z,2.63
2022-12-31T11:53:48.093Z,1.97
2022-12-31T11:56:18.579Z,2.27
2022-12-31T11:58:48.787Z,3.60
2022-12-31T12:01:20.206Z,3.63
2022-12-31T12:03:49.941Z,2.73
2022-12-31T12:06:19.705Z,2.77
2022-12-31T12:08:47.687Z,3.07
2022-12-31T12:11:20.028Z,3.90
2022-12-31T12:13:48.038Z,2.83
2022-12-31T12:16:16.454Z,2.20
2022-12-31T12:18:47.003Z,2.93
2022-12-31T12:21:18.359Z,3.43
2022-12-31T12:23:56.492Z,1.97
2022-12-31T12:26:28.832Z,3.80
2022-12-31T12:28:56.674Z,3.03
2022-12-31T12:31:26.844Z,2.60
2022-12-31T12:33:54.969Z,1.93
2022-12-31T12:36:24.115Z,1.77
2022-12-31T12:39:02.481Z,3.03
2022-12-31T12:41:30.303Z,3.30
2022-12-31T12:44:07.307Z,1.70
2022-12-31T12:46:37.480Z,2.60
2022-12-31T12:49:05.657Z,1.40
2022-12-31T12:51:47.890Z,3.53
2022-12-31T12:54:26.913Z,3.00
2022-12-31T12:57:00.936Z,4.70
2022-12-31T12:59:49.277Z,3.47
2022-12-31T13:02:29.643Z,2.53
2022-12-31T13:05:10.276Z,3.17
2022-12-31T13:07:50.355Z,3.47
2022-12-31T13:10:26.872Z,4.73
2022-12-31T13:13:23.276Z,3.73
2022-12-31T13:15:54.010Z,1.63
2022-12-31T13:18:34.441Z,1.80
2022-12-31T13:21:04.663Z,1.70
2022-12-31T13:23:39.836Z,2.07
2022-12-31T13:26:10.706Z,2.07
2022-12-31T13:28:41.995Z,3.50
2022-12-31T13:31:14.194Z,3.60
2022-12-31T13:33:44.421Z,1.63
2022-12-31T13:36:16.275Z,2.73
2022-12-31T13:38:47.609Z,1.73
2022-12-31T13:41:18.657Z,4.27
2022-12-31T13:43:51.090Z,2.20
2022-12-31T13:46:22.272Z,2.53
2022-12-31T13:48:52.154Z,2.60
2022-12-31T13:51:25.436Z,1.40
2022-12-31T13:53:58.680Z,1.77
2022-12-31T13:56:28.770Z,2.53
2022-12-31T13:58:59.401Z,1.77
2022-12-31T14:01:33.909Z,1.60
2022-12-31T14:04:07.146Z,1.83
2022-12-31T14:06:38.544Z,2.87
2022-12-31T14:09:08.085Z,4.03
2022-12-31T14:11:50.084Z,4.50
2022-12-31T14:14:25.134Z,2.73
2022-12-31T14:16:58.003Z,4.97
2022-12-31T14:19:47.763Z,1.73
2022-12-31T14:22:19.826Z,4.03
2022-12-31T14:24:50.581Z,1.67
2022-12-31T14:27:21.411Z,1.70
2022-12-31T14:29:51.580Z,3.30
2022-12-31T14:32:51.862Z,3.80
2022-12-31T14:35:41.606Z,3.37
2022-12-31T14:38:17.321Z,3.60
2022-12-31T14:40:55.293Z,1.60
2022-12-31T14:43:26.643Z,3.00
2022-12-31T14:46:02.030Z,2.03
2022-12-31T14:48:40.506Z,2.37
2022-12-31T14:51:08.372Z,1.93
2022-12-31T14:53:36.061Z,3.30
2022-12-31T14:56:06.526Z,2.20
2022-12-31T14:58:36.014Z,2.53
2022-12-31T15:01:08.657Z,1.53
2022-12-31T15:03:44.954Z,4.20
2022-12-31T15:06:29.259Z,3.67
2022-12-31T15:09:08.117Z,2.60
2022-12-31T15:11:47.867Z,2.07
2022-12-31T15:14:41.324Z,2.57
2022-12-31T15:17:17.327Z,2.47
2022-12-31T15:20:13.220Z,4.43
2022-12-31T15:22:45.622Z,1.40
2022-12-31T15:25:32.610Z,1.90
2022-12-31T15:28:06.466Z,2.73
2022-12-31T15:30:38.145Z,2.43
2022-12-31T15:33:07.997Z,4.07
2022-12-31T15:35:47.564Z,1.40
2022-12-31T15:38:28.101Z,1.73
2022-12-31T15:40:55.803Z,1.93
2022-12-31T15:43:30.780Z,1.87
2022-12-31T15:45:58.892Z,3.33
2022-12-31T15:48:29.196Z,2.77
2022-12-31T15:51:01.692Z,1.10
2022-12-31T15:53:30.909Z,3.57
2022-12-31T15:56:00.354Z,2.60
2022-12-31T15:58:32.705Z,1.30
2022-12-31T16:01:04.248Z,2.27
2022-12-31T16:03:32.923Z,1.47
2022-12-31T16:06:02.084Z,2.03
2022-12-31T16:08:31.925Z,1.30
2022-12-31T16:11:00.191Z,1.50
2022-12-31T16:13:29.667Z,1.60
2022-12-31T16:16:01.384Z,1.57
2022-12-31T16:18:37.721Z,1.60
2022-12-31T16:21:05.669Z,2.83
2022-12-31T16:23:38.796Z,2.27
2022-12-31T16:26:10.422Z,3.53
2022-12-31T16:28:39.411Z,1.07
2022-12-31T16:31:09.017Z,2.53
2022-12-31T16:33:36.660Z,4.47
2022-12-31T16:36:05.208Z,1.63
2022-12-31T16:38:34.945Z,3.20
2022-12-31T16:41:15.939Z,2.53
2022-12-31T16:43:45.422Z,2.63
2022-12-31T16:46:17.508Z,13.20
2022-12-31T16:48:47.562Z,6.73
2022-12-31T16:51:19.427Z,3.43
2022-12-31T16:53:48.128Z,2.30
2022-12-31T16:56:26.150Z,1.50
2022-12-31T16:59:00.970Z,3.13
2022-12-31T17:01:30.904Z,2.73
2022-12-31T17:04:00.810Z,3.63
2022-12-31T17:06:32.060Z,2.50
2022-12-31T17:09:13.942Z,5.10
2022-12-31T17:11:48.204Z,2.83
2022-12-31T17:14:18.952Z,5.23
2022-12-31T17:17:01.590Z,3.47
2022-12-31T17:19:40.161Z,6.67
2022-12-31T17:22:11.444Z,7.37
2022-12-31T17:24:39.573Z,6.13
2022-12-31T17:27:08.806Z,5.37
2022-12-31T17:29:38.032Z,10.33
2022-12-31T17:32:07.785Z,8.90
2022-12-31T17:34:36.738Z,7.50
2022-12-31T17:37:18.302Z,12.47
2022-12-31T17:39:50.870Z,6.80
2022-12-31T17:42:26.290Z,6.87
2022-12-31T17:44:58.478Z,9.37
2022-12-31T17:47:34.210Z,9.57
2022-12-31T17:50:07.295Z,7.83
2022-12-31T17:52:34.973Z,11.10
2022-12-31T17:55:02.721Z,4.73
2022-12-31T17:57:30.436Z,4.93
2022-12-31T17:59:59.455Z,4.27
2022-12-31T18:02:27.205Z,6.73
2022-12-31T18:04:54.908Z,5.70
2022-12-31T18:07:22.607Z,2.87
2022-12-31T18:09:50.281Z,4.73
2022-12-31T18:12:18.515Z,6.17
2022-12-31T18:14:46.672Z,3.97
2022-12-31T18:17:17.206Z,3.83
2022-12-31T18:22:32.604Z,8.10
2022-12-31T18:25:00.275Z,4.90
2022-12-31T18:27:27.923Z,4.67
2022-12-31T18:30:00.571Z,3.60
2022-12-31T18:32:33.970Z,4.90
2022-12-31T18:35:01.997Z,2.33
2022-12-31T18:37:30.371Z,5.07
2022-12-31T18:39:57.976Z,2.77
2022-12-31T18:42:27.313Z,2.47
2022-12-31T18:44:55.109Z,2.67
2022-12-31T18:47:24.089Z,3.40
2022-12-31T18:49:53.235Z,2.73
2022-12-31T18:52:23.325Z,3.80
2022-12-31T18:54:51.074Z,5.27
2022-12-31T18:57:18.888Z,4.83
2022-12-31T18:59:46.519Z,4.23
2022-12-31T19:02:17.748Z,3.10
2022-12-31T19:04:45.684Z,3.73
2022-12-31T19:07:14.780Z,2.47
2022-12-31T19:09:45.654Z,2.50
2022-12-31T19:12:15.152Z,3.60
2022-12-31T19:14:43.175Z,2.77
2022-12-31T19:19:37.431Z,2.70
2022-12-31T19:22:05.185Z,2.43
2022-12-31T19:24:34.198Z,2.30
2022-12-31T19:27:02.516Z,1.53
2022-12-31T19:29:30.210Z,1.80
2022-12-31T19:32:01.235Z,1.97
2022-12-31T19:34:28.865Z,2.70
2022-12-31T19:36:56.576Z,3.07
2022-12-31T19:39:24.238Z,3.67
2022-12-31T19:41:58.867Z,2.50
2022-12-31T19:44:27.324Z,2.90
2022-12-31T19:46:54.989Z,3.60
2022-12-31T19:49:22.881Z,3.50
2022-12-31T19:51:50.543Z,1.87
2022-12-31T19:54:18.123Z,2.97
2022-12-31T19:56:45.741Z,7.93
2022-12-31T19:59:14.864Z,3.23
2022-12-31T20:01:42.634Z,3.20
2022-12-31T20:04:10.396Z,2.33
2022-12-31T20:06:37.992Z,3.17
2022-12-31T20:09:05.695Z,2.90
2022-12-31T20:11:33.293Z,2.27
2022-12-31T20:14:00.910Z,2.37
2022-12-31T20:16:31.618Z,1.87
2022-12-31T20:18:59.361Z,3.70
2022-12-31T20:21:29.114Z,2.43
2022-12-31T20:23:57.153Z,1.40
2022-12-31T20:26:25.522Z,3.83
2022-12-31T20:28:53.475Z,3.87
2022-12-31T20:31:23.451Z,1.83
2022-12-31T20:33:54.069Z,2.00
2022-12-31T20:36:21.805Z,3.27
2022-12-31T20:38:49.606Z,2.40
2022-12-31T20:41:18.802Z,4.13
2022-12-31T20:43:47.082Z,3.83
2022-12-31T20:46:18.772Z,7.30
2022-12-31T20:48:47.446Z,30.23
2022-12-31T20:51:17.709Z,36.37
2022-12-31T20:53:47.850Z,17.70
2022-12-31T20:56:16.110Z,24.17
2022-12-31T20:58:44.067Z,9.07
2022-12-31T21:01:11.952Z,3.80
2022-12-31T21:06:34.755Z,6.83
2022-12-31T21:09:07.522Z,5.40
2022-12-31T21:11:53.157Z,3.17
2022-12-31T21:14:21.059Z,2.63
2022-12-31T21:16:48.748Z,2.20
2022-12-31T21:19:16.432Z,2.17
2022-12-31T21:21:45.423Z,2.27
2022-12-31T21:24:13.121Z,2.47
2022-12-31T21:26:40.747Z,2.53
2022-12-31T21:29:08.658Z,3.63
2022-12-31T21:31:36.347Z,2.03
2022-12-31T21:34:03.960Z,2.77
2022-12-31T21:36:31.580Z,2.93
2022-12-31T21:39:00.867Z,4.33
2022-12-31T21:41:46.222Z,2.30
2022-12-31T21:44:13.858Z,2.07
2022-12-31T21:47:00.759Z,1.77
2022-12-31T21:49:29.281Z,3.53
2022-12-31T21:52:14.473Z,2.87
2022-12-31T21:55:01.179Z,3.10
2022-12-31T21:57:28.837Z,2.27
2022-12-31T22:00:41.188Z,3.90
2022-12-31T22:03:19.980Z,3.30
2022-12-31T22:05:50.559Z,2.60
2022-12-31T22:08:18.386Z,4.13
2022-12-31T22:10:52.453Z,2.40
2022-12-31T22:13:21.107Z,3.40
2022-12-31T22:15:52.975Z,3.03
2022-12-31T22:18:21.100Z,3.40
2022-12-31T22:20:48.749Z,2.50
2022-12-31T22:23:16.546Z,3.33
2022-12-31T22:25:44.143Z,3.17
2022-12-31T22:28:37.557Z,2.53
2022-12-31T22:31:01.050Z,3.83
2022-12-31T22:33:28.776Z,5.33
2022-12-31T22:36:01.154Z,3.17
2022-12-31T22:38:29.320Z,2.83
2022-12-31T22:41:04.820Z,3.53
2022-12-31T22:43:34.208Z,1.90
2022-12-31T22:46:07.588Z,3.43
2022-12-31T22:48:35.355Z,2.63
2022-12-31T22:51:03.333Z,4.73
2022-12-31T22:53:30.959Z,2.07
2022-12-31T22:55:58.822Z,2.40
2022-12-31T22:58:26.926Z,2.87
2022-12-31T23:00:55.860Z,3.27
2022-12-31T23:03:23.692Z,6.73
2022-12-31T23:05:52.526Z,7.80
2022-12-31T23:08:23.769Z,10.70
2022-12-31T23:11:01.772Z,16.43
2022-12-31T23:13:51.060Z,8.30
2022-12-31T23:16:38.226Z,9.47
2022-12-31T23:19:24.254Z,3.90
2022-12-31T23:22:09.398Z,9.87
2022-12-31T23:24:37.119Z,9.70
2022-12-31T23:27:05.619Z,5.00
2022-12-31T23:29:33.787Z,3.07
2022-12-31T23:32:02.702Z,4.33
2022-12-31T23:34:30.478Z,3.77
2022-12-31T23:36:58.072Z,3.67
2022-12-31T23:39:25.861Z,5.63
2022-12-31T23:41:53.475Z,5.53
2022-12-31T23:44:21.360Z,9.23
2022-12-31T23:46:49.483Z,6.97
2022-12-31T23:49:18.498Z,7.43
2022-12-31T23:51:46.581Z,8.90
2022-12-31T23:54:14.826Z,7.70
2022-12-31T23:56:42.659Z,9.60
2022-12-31T23:59:10.897Z,5.93
